Aérodrome :
LOGIN :

S'inscrire | Disclaimer

   EN    FR    IT 

 










Légende :    VFR   VFR Marginal   IFR   IFR Intensif   IFR Très Intensif
Visi : 
Plafond : 
>= 8 km
>= 3000ft
5 à 8 km
1000 à 3000 ft
1500m à 5 km
500 à 1000 ft
800 à 1500m
200 à 500 ft
< 800m
< 200 ft
Symboles :   Orages  Brouillard  Fortes neiges  Fortes précipitations  Vent > 20 kt
SIGMETs :   Divers  Orages  Givrage  Turbulence  Onde Orograph.  Cendres Volcan.






- Altitude de l'aérodrome : 1300 ft
- Code IATA : LIG


LFBL - Limoges

DERNIER METAR :
  • 231730Z AUTO 34007KT 310V020 9999 BKN014 17/13 Q1019 TEMPO VRB15G25KT 4000 SHRA BKN015 FEW030CB OVC050

METARs EXPIRÉS :
  • 231700Z AUTO 34007KT 310V020 9999 FEW017 SCT064 18/13 Q1019 TEMPO VRB15G25KT 4000 SHRA BKN015 FEW030CB OVC050
  • 231630Z AUTO 35008KT 320V020 9999 SCT017 19/14 Q1018 TEMPO VRB15G25KT 4000 SHRA BKN015 FEW030CB OVC050
  • 231600Z AUTO 34010KT 300V020 9999 SCT018/// SCT024/// BKN048/// ///CB 19/14 Q1018 TEMPO VRB15G25KT 4000 SHRA
  • 231530Z AUTO 35010KT 310V040 9999 FEW019/// SCT049/// BKN086/// ///CB 19/14 Q1018 TEMPO VRB15G25KT 4000 SHRA
  • 231500Z AUTO 32009KT 290V010 9999 BKN043/// BKN049/// OVC074/// ///CB 18/14 Q1019 TEMPO VRB15G25KT 4000 SHRA

TAF AMD TAF LFBL
Valide du 23 à 13h jusqu'au 24 à 12h UTC


231312Z 2313/2412 32005KT 9999 SCT025TCU SCT050
PROB40
TEMPO 2313/2405 4000 SHRA
PROB30
TEMPO 2313/2402 VRB15G25KT TSRA BKN015 FEW030CB OVC050
PROB40 2403/2407 4000 BR OVC004
ATIS : +33 5 55 48 40 37



MET'MAP, la Météo Aéronautique d'un coup d'oeil ! - Copyright ORBIFLY Décembre 2007 - Disclaimer

ORBIFLY MET'MAP TEAM :

Programmation & Développement : Alexandra Zaïnal
Sur une idée originale de : Baudouin d'Aumeries
Assistance à la programmation : Marc-Olivier Méhu
Soutien technique & logistique : Manuel Goepfert

Contact : metmap@orbifly.com




SOURCES & CREDITS :

   NOAA